Skrydstrup, Denmark
Current Conditions -  °F | °C
As of 2:20 AM on Wednesday 22 Oct 2014 (Local Time) from EKSP Reporting Station
Broken Clouds Broken Clouds  
Wind Chill: 44°   Ceiling: 15000
Heat Index: 46°   Visibility: 6mi
Dew Point: 45°   Wind: 5mph
Humidity: 93%   Direction: 180°S
Pressure: 29.38"   Gusts: NA
Location:  55.24°N, 9.25°E
Report Text: EKSP 220020Z 18004KT 9999 FEW038 BKN150 08/07 Q0995
Loading
Personal Weather Stations






























Interactive Weather Map
Tropical Storm Tracking
New forecast layout! Learn more

10-Day Weather Forecast

Advertisements
Track Severe Weather on mobile